Time;durP1;ratioP1;P1;durP2;ratioP2;P2;SDS_P1;SDS_P2;PMS_P1;PMS_P2;Temp;Humidity;BMP_temperature;BMP_pressure;BME280_temperature;BME280_humidity;BME280_pressure;Samples;Min_cycle;Max_cycle;Signal;HPM_P1;HPM_P2
2023/08/17 00:01:34;;;;;;;3.27;2.97;;;28.20;58.60;;;;;;5010706;28;20275;-45
2023/08/17 00:04:00;;;;;;;3.30;3.10;;;28.20;58.60;;;;;;5008481;28;20182;-46
2023/08/17 00:06:25;;;;;;;3.20;3.00;;;28.20;58.70;;;;;;5010347;28;20206;-46
2023/08/17 00:08:51;;;;;;;3.13;2.83;;;28.10;58.60;;;;;;5007914;28;20705;-46
2023/08/17 00:11:17;;;;;;;5.80;2.60;;;28.10;58.70;;;;;;5009520;28;20630;-47
2023/08/17 00:13:42;;;;;;;3.53;3.03;;;28.10;58.70;;;;;;5007231;28;20598;-47
2023/08/17 00:16:08;;;;;;;4.90;3.27;;;28.20;58.60;;;;;;5007196;28;20186;-48
2023/08/17 00:18:34;;;;;;;4.77;3.17;;;28.10;58.40;;;;;;5007460;28;20212;-46
2023/08/17 00:20:59;;;;;;;4.27;2.70;;;28.00;58.60;;;;;;5006305;28;20182;-47
2023/08/17 00:23:25;;;;;;;5.83;3.43;;;28.00;58.90;;;;;;4998805;28;20657;-52
2023/08/17 00:25:51;;;;;;;3.80;2.67;;;27.90;59.10;;;;;;4998975;28;20222;-46
2023/08/17 00:28:16;;;;;;;3.87;3.57;;;27.80;59.20;;;;;;4999853;28;20195;-46
2023/08/17 00:30:42;;;;;;;3.63;2.60;;;27.80;59.50;;;;;;4999520;28;20202;-51
2023/08/17 00:33:07;;;;;;;4.00;3.00;;;27.80;59.50;;;;;;5000609;28;20221;-48
2023/08/17 00:35:33;;;;;;;4.10;3.00;;;27.70;59.80;;;;;;4999149;28;20333;-46
2023/08/17 00:38:00;;;;;;;3.77;2.93;;;27.80;59.70;;;;;;5000113;28;20194;-47
2023/08/17 00:40:25;;;;;;;5.53;3.50;;;27.80;59.70;;;;;;5002588;28;20209;-48
2023/08/17 00:42:51;;;;;;;3.40;3.10;;;27.80;59.50;;;;;;4998072;28;20445;-50
2023/08/17 00:45:18;;;;;;;5.40;3.37;;;27.80;59.50;;;;;;4998702;28;20206;-49
2023/08/17 00:47:44;;;;;;;3.23;2.93;;;27.80;59.40;;;;;;5004114;28;21028;-50
2023/08/17 00:50:11;;;;;;;4.00;2.90;;;27.80;59.40;;;;;;5002914;28;20532;-47
2023/08/17 00:52:38;;;;;;;5.70;2.60;;;27.80;59.50;;;;;;5008973;28;20225;-45
2023/08/17 00:55:05;;;;;;;3.40;2.70;;;27.80;59.60;;;;;;5002366;28;20452;-46
2023/08/17 00:57:31;;;;;;;5.30;3.77;;;27.60;60.20;;;;;;4997275;28;20461;-47
2023/08/17 00:59:58;;;;;;;3.17;2.87;;;27.50;60.00;;;;;;5003513;28;20960;-46
2023/08/17 01:02:24;;;;;;;3.13;2.80;;;27.50;60.20;;;;;;4997496;28;20437;-46
2023/08/17 01:04:50;;;;;;;3.20;2.90;;;27.60;60.10;;;;;;5003690;28;20959;-48
2023/08/17 01:07:15;;;;;;;9.33;3.90;;;27.70;60.00;;;;;;5010079;28;20194;-47
2023/08/17 01:09:42;;;;;;;5.60;3.30;;;27.70;59.70;;;;;;5005465;28;21796;-46
2023/08/17 01:12:27;;;;;;;6.13;3.70;;;27.70;59.90;;;;;;5006818;28;20222;-47
2023/08/17 01:15:08;;;;;;;3.97;3.00;;;27.70;59.80;;;;;;5005018;28;20437;-47
2023/08/17 01:17:42;;;;;;;4.03;3.10;;;27.80;59.60;;;;;;4998129;28;20841;-46
2023/08/17 01:20:11;;;;;;;4.63;3.60;;;27.80;59.50;;;;;;5003447;28;20524;-48
2023/08/17 01:22:39;;;;;;;4.27;3.10;;;27.80;59.40;;;;;;4994242;28;20971;-48
2023/08/17 01:25:05;;;;;;;4.67;4.30;;;27.80;59.30;;;;;;4998864;28;20457;-46
2023/08/17 01:27:41;;;;;;;2.90;2.67;;;27.80;59.40;;;;;;5002551;28;20459;-49
2023/08/17 01:30:09;;;;;;;2.63;2.50;;;27.80;59.70;;;;;;5005668;28;20201;-46
2023/08/17 01:32:40;;;;;;;2.80;2.60;;;27.80;59.70;;;;;;4994100;28;20542;-48
2023/08/17 01:35:26;;;;;;;5.30;3.63;;;27.80;59.70;;;;;;4998779;28;20665;-46
2023/08/17 01:37:55;;;;;;;4.13;3.07;;;27.80;59.40;;;;;;5003170;28;20448;-48
2023/08/17 01:40:21;;;;;;;4.73;3.03;;;27.80;59.50;;;;;;5006946;28;20803;-47
2023/08/17 01:42:49;;;;;;;3.87;3.37;;;27.80;59.50;;;;;;5005579;28;20444;-46
2023/08/17 01:45:15;;;;;;;3.67;3.37;;;27.80;59.60;;;;;;5006038;28;20928;-51
2023/08/17 01:47:41;;;;;;;4.50;3.60;;;27.80;59.70;;;;;;5008868;28;20479;-45
2023/08/17 01:50:07;;;;;;;4.20;3.10;;;27.80;59.60;;;;;;5004155;28;20444;-46
2023/08/17 01:52:32;;;;;;;4.00;3.17;;;27.70;59.30;;;;;;5009409;28;20709;-49
2023/08/17 01:54:58;;;;;;;4.10;3.50;;;27.60;59.90;;;;;;5009669;28;20227;-46
2023/08/17 01:57:23;;;;;;;4.07;3.77;;;27.60;60.20;;;;;;5011454;28;20213;-46
2023/08/17 01:59:49;;;;;;;2.93;2.73;;;27.60;60.30;;;;;;5011505;28;20194;-46
2023/08/17 02:02:15;;;;;;;3.83;3.37;;;27.60;60.30;;;;;;5007980;28;20230;-48
2023/08/17 02:04:41;;;;;;;3.27;3.07;;;27.70;60.10;;;;;;5012433;28;20205;-47
2023/08/17 02:07:06;;;;;;;2.60;2.50;;;27.70;59.90;;;;;;5010651;28;20444;-46
2023/08/17 02:09:32;;;;;;;3.43;3.23;;;27.70;59.80;;;;;;5011663;28;20662;-47
2023/08/17 02:11:57;;;;;;;5.80;3.53;;;27.70;59.60;;;;;;5011775;28;20241;-50
2023/08/17 02:14:23;;;;;;;4.60;3.50;;;27.70;59.50;;;;;;5008108;28;20202;-48
2023/08/17 02:16:48;;;;;;;3.30;3.00;;;27.70;59.50;;;;;;5014674;28;20606;-47
2023/08/17 02:19:14;;;;;;;5.50;3.10;;;27.70;59.60;;;;;;5011822;28;20574;-48
2023/08/17 02:21:40;;;;;;;4.60;3.60;;;27.70;59.50;;;;;;5006625;28;20230;-49
2023/08/17 02:24:06;;;;;;;4.23;3.03;;;27.70;59.50;;;;;;5007341;28;20205;-45
2023/08/17 02:26:31;;;;;;;3.80;3.50;;;27.70;59.60;;;;;;5001129;28;20281;-46
2023/08/17 02:28:57;;;;;;;4.10;3.40;;;27.70;59.50;;;;;;5004327;28;21036;-45
2023/08/17 02:31:23;;;;;;;3.43;3.13;;;27.70;59.50;;;;;;5001123;28;20561;-45
2023/08/17 02:33:49;;;;;;;3.90;3.60;;;27.70;59.40;;;;;;5005465;28;20198;-46
2023/08/17 02:36:14;;;;;;;6.23;3.30;;;27.70;59.60;;;;;;5012582;28;20776;-45
2023/08/17 02:38:40;;;;;;;6.30;3.40;;;27.60;59.50;;;;;;5012599;28;20499;-47
2023/08/17 02:41:05;;;;;;;3.00;2.80;;;27.50;59.60;;;;;;5005457;28;20651;-52
2023/08/17 02:43:31;;;;;;;2.83;2.63;;;27.40;60.20;;;;;;5005611;28;20205;-51
2023/08/17 02:45:56;;;;;;;5.83;3.57;;;27.30;60.30;;;;;;5006660;28;20302;-50
2023/08/17 02:48:22;;;;;;;4.30;3.07;;;27.30;60.30;;;;;;5002829;28;20244;-45
2023/08/17 02:50:48;;;;;;;6.30;3.93;;;27.20;60.90;;;;;;5000469;28;20260;-47
2023/08/17 02:53:13;;;;;;;5.47;2.73;;;27.20;61.80;;;;;;4999987;28;20590;-48
2023/08/17 02:55:39;;;;;;;5.53;4.00;;;27.20;60.70;;;;;;5003041;28;20197;-45
2023/08/17 02:58:04;;;;;;;9.70;3.27;;;27.00;60.60;;;;;;5002108;28;20196;-45
2023/08/17 03:00:30;;;;;;;5.67;3.37;;;26.40;62.70;;;;;;4999839;28;20199;-45
2023/08/17 03:02:55;;;;;;;6.47;3.83;;;26.30;63.70;;;;;;4997762;28;20580;-45
2023/08/17 03:05:21;;;;;;;9.43;3.60;;;26.40;63.90;;;;;;5008339;28;20213;-45
2023/08/17 03:07:46;;;;;;;3.33;3.03;;;26.60;63.40;;;;;;5006604;28;20210;-45
2023/08/17 03:10:12;;;;;;;3.47;2.97;;;26.70;62.90;;;;;;5005957;28;20950;-46
2023/08/17 03:12:38;;;;;;;5.10;3.17;;;26.80;62.60;;;;;;5008204;28;20229;-44
2023/08/17 03:15:06;;;;;;;4.00;3.70;;;27.00;61.80;;;;;;5004808;28;22728;-45
2023/08/17 03:17:31;;;;;;;4.33;3.83;;;27.10;61.50;;;;;;5001822;28;20448;-46
2023/08/17 03:19:59;;;;;;;4.57;3.83;;;27.20;61.20;;;;;;5002883;28;20441;-49
2023/08/17 03:22:25;;;;;;;4.23;3.67;;;27.20;61.00;;;;;;5003779;28;20198;-44
2023/08/17 03:24:50;;;;;;;5.50;3.90;;;27.30;60.70;;;;;;4995216;28;20461;-46
2023/08/17 03:27:16;;;;;;;5.90;3.50;;;27.30;60.50;;;;;;5000122;28;20205;-47
2023/08/17 03:29:41;;;;;;;5.93;4.50;;;27.40;60.30;;;;;;5003187;28;20276;-48
2023/08/17 03:32:07;;;;;;;5.17;4.67;;;27.40;60.30;;;;;;5000500;28;20245;-48
2023/08/17 03:34:32;;;;;;;4.80;4.37;;;27.40;60.20;;;;;;5007104;28;20574;-46
2023/08/17 03:36:58;;;;;;;5.17;4.70;;;27.40;60.30;;;;;;4998663;28;20226;-50
2023/08/17 03:39:23;;;;;;;4.03;3.73;;;27.40;60.40;;;;;;5004350;28;20202;-45
2023/08/17 03:41:49;;;;;;;6.13;4.50;;;27.40;60.30;;;;;;5011385;28;21262;-45
2023/08/17 03:44:15;;;;;;;6.53;4.67;;;27.40;60.20;;;;;;5006680;28;20194;-48
2023/08/17 03:46:41;;;;;;;9.13;5.37;;;27.50;60.30;;;;;;5005790;28;20230;-47
2023/08/17 03:49:07;;;;;;;10.43;5.60;;;27.50;60.40;;;;;;5011151;28;20851;-45
2023/08/17 03:51:32;;;;;;;8.13;5.83;;;27.40;60.40;;;;;;5011544;28;20752;-49
2023/08/17 03:53:58;;;;;;;5.03;3.70;;;27.50;60.70;;;;;;5009989;28;20205;-49
2023/08/17 03:56:23;;;;;;;4.80;4.30;;;27.50;60.60;;;;;;5007970;28;20187;-48
2023/08/17 03:58:50;;;;;;;11.93;6.10;;;27.50;60.20;;;;;;5010076;28;20268;-50
2023/08/17 04:01:16;;;;;;;5.53;5.03;;;27.60;60.10;;;;;;5011575;28;20662;-47
2023/08/17 04:03:41;;;;;;;6.27;4.50;;;27.60;60.10;;;;;;5011973;28;20472;-49
2023/08/17 04:06:10;;;;;;;3.80;3.50;;;27.60;60.00;;;;;;5002583;28;20221;-46
2023/08/17 04:08:38;;;;;;;6.90;5.50;;;27.60;60.60;;;;;;5010894;28;20198;-47
2023/08/17 04:11:05;;;;;;;5.20;4.13;;;27.70;59.80;;;;;;5009307;28;20440;-47
2023/08/17 04:13:31;;;;;;;7.73;6.70;;;27.60;59.80;;;;;;5012732;28;20597;-45
2023/08/17 04:15:57;;;;;;;6.53;5.93;;;27.40;60.00;;;;;;5013634;28;20445;-45
2023/08/17 04:18:22;;;;;;;10.13;5.00;;;27.20;61.10;;;;;;5010297;28;20998;-46
2023/08/17 04:20:48;;;;;;;8.37;6.00;;;27.20;61.20;;;;;;5011839;28;20218;-47
2023/08/17 04:23:14;;;;;;;8.17;6.50;;;27.30;60.90;;;;;;5007096;28;20302;-45
2023/08/17 04:25:40;;;;;;;5.23;3.80;;;27.30;61.40;;;;;;5017033;28;20193;-46
2023/08/17 04:28:05;;;;;;;9.00;6.07;;;27.20;61.10;;;;;;5012396;28;20609;-45
2023/08/17 04:30:31;;;;;;;6.10;5.43;;;27.00;61.80;;;;;;5012913;28;20445;-46
2023/08/17 04:32:56;;;;;;;10.27;6.77;;;27.00;63.20;;;;;;5003719;28;20225;-50
2023/08/17 04:35:22;;;;;;;10.13;6.77;;;27.00;63.00;;;;;;5011585;28;20194;-45
2023/08/17 04:37:48;;;;;;;15.47;7.93;;;27.10;62.00;;;;;;5009238;28;20198;-49
2023/08/17 04:40:14;;;;;;;7.77;6.90;;;27.10;62.20;;;;;;5010812;28;20196;-47
2023/08/17 04:42:40;;;;;;;10.00;7.67;;;27.10;62.20;;;;;;5009635;28;20194;-44
2023/08/17 04:45:06;;;;;;;8.43;7.60;;;27.10;62.20;;;;;;5010516;28;20444;-48
2023/08/17 04:47:32;;;;;;;9.90;8.13;;;27.10;62.30;;;;;;5007336;28;20476;-47
2023/08/17 04:49:57;;;;;;;10.63;8.20;;;27.10;62.30;;;;;;5003727;28;20451;-50
2023/08/17 04:52:23;;;;;;;9.00;7.87;;;27.10;62.40;;;;;;5002077;28;20225;-45
2023/08/17 04:54:49;;;;;;;11.03;7.70;;;27.00;62.50;;;;;;5009132;28;20201;-46
2023/08/17 04:57:14;;;;;;;12.40;8.20;;;27.00;62.50;;;;;;5000321;28;20194;-45
2023/08/17 04:59:40;;;;;;;10.70;7.50;;;26.90;62.80;;;;;;5001436;28;20190;-47
2023/08/17 05:02:06;;;;;;;7.60;6.60;;;26.90;63.20;;;;;;5004688;28;20221;-45
2023/08/17 05:04:32;;;;;;;6.93;6.33;;;26.80;63.40;;;;;;5003664;28;20441;-47
2023/08/17 05:06:57;;;;;;;9.03;7.20;;;26.80;63.60;;;;;;5007283;28;20186;-45
2023/08/17 05:09:23;;;;;;;8.17;7.37;;;26.80;63.50;;;;;;5007338;28;20210;-46
2023/08/17 05:11:49;;;;;;;8.67;7.70;;;26.80;63.60;;;;;;5005734;28;20210;-45
2023/08/17 05:14:14;;;;;;;8.87;7.97;;;26.90;63.60;;;;;;4997554;28;20194;-44
2023/08/17 05:16:40;;;;;;;10.33;8.80;;;26.90;63.50;;;;;;5002761;28;20197;-45
2023/08/17 05:19:05;;;;;;;12.60;8.60;;;26.90;63.50;;;;;;5013739;28;20206;-45
2023/08/17 05:21:31;;;;;;;12.50;8.30;;;26.80;63.50;;;;;;5007306;28;20272;-46
2023/08/17 05:23:56;;;;;;;9.07;8.17;;;26.90;63.50;;;;;;5008695;28;20194;-45
2023/08/17 05:26:22;;;;;;;9.30;7.40;;;27.00;63.10;;;;;;5004411;28;20621;-46
2023/08/17 05:28:48;;;;;;;8.90;7.50;;;26.70;64.30;;;;;;5005730;28;20248;-44
2023/08/17 05:31:13;;;;;;;11.50;8.50;;;26.50;64.40;;;;;;5013729;28;20197;-44
2023/08/17 05:33:40;;;;;;;13.27;9.37;;;26.60;65.00;;;;;;5014388;28;20342;-46
2023/08/17 05:36:07;;;;;;;11.37;7.53;;;26.60;64.70;;;;;;5009322;28;20708;-44
2023/08/17 05:38:32;;;;;;;12.17;9.63;;;26.40;66.00;;;;;;5010773;28;20432;-44
2023/08/17 05:40:59;;;;;;;13.13;9.40;;;26.50;65.30;;;;;;5012281;28;20858;-46
2023/08/17 05:43:24;;;;;;;10.63;9.67;;;26.50;65.40;;;;;;5013682;28;20591;-44
2023/08/17 05:45:51;;;;;;;11.67;10.10;;;26.50;65.50;;;;;;5013285;28;20516;-44
2023/08/17 05:48:23;;;;;;;14.30;12.10;;;26.60;65.50;;;;;;5018691;28;20938;-45
2023/08/17 05:50:49;;;;;;;11.70;8.73;;;26.70;65.20;;;;;;5013704;28;20217;-45
2023/08/17 05:53:14;;;;;;;16.10;12.13;;;26.80;65.00;;;;;;5014840;28;20695;-44
2023/08/17 05:55:40;;;;;;;11.87;10.67;;;26.80;64.60;;;;;;5016253;28;20194;-46
2023/08/17 05:58:05;;;;;;;11.00;9.30;;;26.90;64.70;;;;;;5011552;28;20197;-45
2023/08/17 06:00:31;;;;;;;14.07;11.00;;;26.90;64.80;;;;;;5012301;28;20691;-48
2023/08/17 06:03:01;;;;;;;10.80;9.70;;;26.90;64.90;;;;;;5011447;28;20201;-45
2023/08/17 06:05:30;;;;;;;10.70;9.60;;;26.90;64.80;;;;;;5016561;28;20232;-45
2023/08/17 06:07:59;;;;;;;13.40;10.20;;;26.90;64.70;;;;;;5018052;28;20804;-44
2023/08/17 06:10:25;;;;;;;9.30;7.90;;;26.90;65.00;;;;;;5018370;28;20447;-44
2023/08/17 06:12:57;;;;;;;13.87;10.90;;;26.90;65.10;;;;;;5015094;28;20531;-46
2023/08/17 06:15:23;;;;;;;12.13;10.90;;;26.90;64.80;;;;;;5018369;28;20448;-45
2023/08/17 06:17:52;;;;;;;12.87;10.90;;;26.90;65.20;;;;;;5016696;28;20455;-44
2023/08/17 06:20:18;;;;;;;9.33;7.97;;;27.00;64.90;;;;;;5016356;28;20440;-45
2023/08/17 06:22:44;;;;;;;9.47;7.43;;;27.10;64.80;;;;;;5012877;28;20452;-46
2023/08/17 06:25:10;;;;;;;9.20;7.50;;;27.20;64.50;;;;;;5001890;28;20963;-45
2023/08/17 06:27:36;;;;;;;14.00;12.57;;;27.20;64.10;;;;;;5013716;28;20448;-45
2023/08/17 06:30:03;;;;;;;10.57;8.60;;;27.20;63.90;;;;;;5008877;28;20440;-45
2023/08/17 06:32:32;;;;;;;10.03;7.97;;;27.10;65.10;;;;;;5006990;28;20277;-47
2023/08/17 06:34:57;;;;;;;12.80;11.20;;;27.20;64.80;;;;;;5015177;28;20490;-48
2023/08/17 06:37:23;;;;;;;10.73;9.70;;;27.30;64.30;;;;;;5008467;28;20453;-46
2023/08/17 06:39:49;;;;;;;13.03;8.23;;;27.40;64.00;;;;;;5011769;28;20614;-50
2023/08/17 06:42:15;;;;;;;10.77;9.67;;;27.50;63.60;;;;;;5009630;28;20220;-45
2023/08/17 06:44:40;;;;;;;13.93;12.50;;;27.60;63.20;;;;;;5009990;28;20202;-48
2023/08/17 06:47:06;;;;;;;13.10;11.80;;;27.60;63.30;;;;;;5008254;28;20630;-47
2023/08/17 06:49:32;;;;;;;15.97;12.90;;;27.50;63.90;;;;;;5008214;28;20248;-48
2023/08/17 06:51:57;;;;;;;13.40;12.10;;;27.40;64.30;;;;;;5006693;28;20225;-51
2023/08/17 06:54:23;;;;;;;13.83;12.53;;;27.40;64.80;;;;;;5007433;28;20297;-48
2023/08/17 06:56:48;;;;;;;13.90;11.90;;;27.40;64.30;;;;;;5008457;28;20229;-48
2023/08/17 06:59:14;;;;;;;12.80;11.03;;;27.30;65.30;;;;;;5011274;28;20281;-47
2023/08/17 07:01:39;;;;;;;12.40;11.30;;;27.40;65.20;;;;;;5007975;28;20240;-49
2023/08/17 07:04:05;;;;;;;12.47;11.33;;;27.50;64.50;;;;;;5011082;28;20222;-48
2023/08/17 07:06:30;;;;;;;11.30;10.30;;;27.50;64.10;;;;;;5011667;28;20204;-48
2023/08/17 07:08:56;;;;;;;11.93;10.83;;;27.40;64.40;;;;;;5014036;28;20189;-51
2023/08/17 07:11:22;;;;;;;14.30;12.90;;;27.20;65.70;;;;;;5013771;28;20228;-51
2023/08/17 07:13:47;;;;;;;13.10;11.80;;;27.10;66.60;;;;;;5014116;28;20194;-49
2023/08/17 07:16:13;;;;;;;14.23;12.67;;;26.90;66.90;;;;;;5011337;28;20315;-48
2023/08/17 07:18:39;;;;;;;16.70;12.70;;;26.80;67.10;;;;;;5013947;28;20299;-52
2023/08/17 07:21:05;;;;;;;13.30;12.07;;;26.30;69.20;;;;;;5012099;28;20480;-48
2023/08/17 07:23:31;;;;;;;13.67;12.40;;;26.30;69.90;;;;;;5009155;28;20194;-47
2023/08/17 07:25:56;;;;;;;15.70;13.20;;;26.50;69.60;;;;;;5011146;28;20532;-47
2023/08/17 07:28:22;;;;;;;12.93;11.73;;;26.40;69.80;;;;;;5013321;28;20630;-48
2023/08/17 07:30:47;;;;;;;14.17;12.70;;;26.30;70.20;;;;;;5009080;28;20205;-49
2023/08/17 07:33:13;;;;;;;12.10;10.80;;;26.30;70.20;;;;;;5005076;28;20304;-51
2023/08/17 07:35:39;;;;;;;11.03;9.93;;;26.50;69.90;;;;;;5011958;28;20194;-53
2023/08/17 07:38:04;;;;;;;12.17;11.03;;;26.70;69.10;;;;;;5013626;28;20359;-47
2023/08/17 07:40:30;;;;;;;12.67;11.57;;;26.90;68.00;;;;;;5013090;28;20197;-50
2023/08/17 07:42:55;;;;;;;10.07;9.17;;;27.10;65.80;;;;;;5012264;28;20197;-47
2023/08/17 07:45:21;;;;;;;11.17;10.00;;;27.00;66.50;;;;;;5012745;28;20275;-52
2023/08/17 07:47:46;;;;;;;12.83;11.63;;;26.90;66.60;;;;;;5009317;28;20249;-50
2023/08/17 07:50:12;;;;;;;11.13;10.03;;;27.00;65.90;;;;;;5011572;28;20281;-50
2023/08/17 07:52:37;;;;;;;11.67;10.63;;;27.00;65.60;;;;;;5012721;28;20229;-52
2023/08/17 07:55:05;;;;;;;11.80;10.60;;;27.10;65.00;;;;;;5013506;28;20190;-47
2023/08/17 07:57:30;;;;;;;12.57;11.33;;;27.40;64.30;;;;;;5003113;28;20202;-48
2023/08/17 07:59:56;;;;;;;12.03;11.03;;;27.60;63.30;;;;;;5008303;28;20421;-49
2023/08/17 08:02:21;;;;;;;10.77;9.77;;;27.80;62.30;;;;;;5013219;28;20190;-49
2023/08/17 08:04:47;;;;;;;10.03;9.13;;;28.00;61.70;;;;;;5013751;28;20619;-51
2023/08/17 08:07:13;;;;;;;10.07;9.17;;;28.20;60.60;;;;;;5010712;28;20673;-52
2023/08/17 08:09:38;;;;;;;10.97;9.97;;;28.40;59.90;;;;;;5011115;28;20198;-53
2023/08/17 08:12:05;;;;;;;10.60;9.60;;;28.50;59.90;;;;;;5012167;28;20312;-52
2023/08/17 08:14:30;;;;;;;10.87;9.73;;;28.40;60.30;;;;;;5010729;28;20231;-54
2023/08/17 08:16:56;;;;;;;9.60;8.63;;;28.50;59.50;;;;;;5012407;28;21054;-53
2023/08/17 08:19:22;;;;;;;12.13;11.00;;;28.80;59.80;;;;;;5008346;28;20708;-54
2023/08/17 08:21:47;;;;;;;10.63;9.70;;;29.10;58.90;;;;;;5005527;28;20194;-51
2023/08/17 08:24:13;;;;;;;10.83;9.70;;;29.00;58.50;;;;;;5004914;28;20609;-51
2023/08/17 08:26:38;;;;;;;11.07;9.93;;;29.20;58.50;;;;;;5009886;28;20197;-49
2023/08/17 08:29:04;;;;;;;9.43;8.33;;;29.50;57.90;;;;;;5006235;28;20186;-47
2023/08/17 08:31:29;;;;;;;10.03;9.00;;;29.60;57.40;;;;;;5010370;28;20649;-49
2023/08/17 08:33:55;;;;;;;10.70;9.70;;;29.70;57.20;;;;;;5011406;28;20715;-48
2023/08/17 08:36:20;;;;;;;8.90;8.20;;;29.90;56.90;;;;;;5008614;28;20592;-49
2023/08/17 08:38:46;;;;;;;9.63;8.83;;;30.00;57.30;;;;;;5005044;28;20673;-49
2023/08/17 08:41:12;;;;;;;10.07;9.20;;;29.90;56.10;;;;;;5006342;28;20598;-48
2023/08/17 08:43:38;;;;;;;9.90;9.10;;;29.90;56.20;;;;;;5012520;28;20239;-48
2023/08/17 08:46:05;;;;;;;10.60;9.50;;;30.10;56.60;;;;;;5011363;28;20189;-49
2023/08/17 08:48:32;;;;;;;10.27;9.47;;;30.30;56.10;;;;;;5001464;28;20468;-48
2023/08/17 08:51:00;;;;;;;10.23;9.37;;;30.60;55.60;;;;;;5008083;28;20443;-48
2023/08/17 08:53:43;;;;;;;9.20;8.43;;;30.80;54.80;;;;;;5006587;28;20550;-49
2023/08/17 08:56:12;;;;;;;8.87;8.17;;;31.00;54.60;;;;;;5008362;28;20457;-49
2023/08/17 08:58:39;;;;;;;8.00;7.40;;;31.20;54.90;;;;;;5005064;28;20453;-48
2023/08/17 09:01:07;;;;;;;7.97;7.27;;;31.40;54.30;;;;;;5003489;28;20453;-50
2023/08/17 09:03:33;;;;;;;9.27;8.40;;;31.60;53.70;;;;;;5006399;28;20536;-50
2023/08/17 09:05:59;;;;;;;10.70;9.60;;;31.70;53.30;;;;;;5002905;28;20591;-50
2023/08/17 09:08:29;;;;;;;10.87;9.77;;;31.90;52.30;;;;;;5004748;28;20539;-48
2023/08/17 09:10:55;;;;;;;8.90;8.20;;;31.90;51.80;;;;;;5003974;28;20209;-49
2023/08/17 09:13:20;;;;;;;9.83;8.90;;;31.90;51.50;;;;;;5013854;28;20522;-49
2023/08/17 09:15:46;;;;;;;10.27;9.37;;;32.00;52.10;;;;;;5007886;28;20202;-52
2023/08/17 09:18:12;;;;;;;10.83;9.77;;;32.00;51.40;;;;;;5007627;28;20208;-49
2023/08/17 09:20:44;;;;;;;10.40;9.37;;;32.10;51.80;;;;;;5005890;28;20213;-48
2023/08/17 09:23:15;;;;;;;10.63;9.53;;;32.20;51.20;;;;;;5009943;28;20277;-48
2023/08/17 09:25:42;;;;;;;8.70;7.93;;;32.10;51.70;;;;;;5008763;28;20448;-50
2023/08/17 09:28:14;;;;;;;10.60;9.60;;;32.10;51.50;;;;;;5005143;28;20456;-48
2023/08/17 09:30:57;;;;;;;9.10;8.30;;;32.20;51.70;;;;;;5007215;28;20442;-52
2023/08/17 09:33:25;;;;;;;9.43;8.73;;;32.20;50.80;;;;;;5008348;28;20488;-48
2023/08/17 09:35:52;;;;;;;9.00;8.20;;;32.00;51.80;;;;;;4999855;28;20449;-49
2023/08/17 09:38:18;;;;;;;12.17;9.17;;;32.20;52.20;;;;;;5003311;28;20495;-49
2023/08/17 09:40:44;;;;;;;9.53;8.80;;;32.30;50.70;;;;;;5006676;28;20776;-49
2023/08/17 09:43:10;;;;;;;9.33;8.63;;;32.40;51.50;;;;;;5006414;28;20472;-50
2023/08/17 09:45:38;;;;;;;8.03;7.17;;;32.60;50.80;;;;;;5006220;28;20476;-48
2023/08/17 09:48:05;;;;;;;8.57;7.80;;;32.80;51.20;;;;;;5000339;28;20260;-51
2023/08/17 09:50:31;;;;;;;10.03;6.97;;;33.20;50.30;;;;;;5004798;28;20449;-47
2023/08/17 09:52:57;;;;;;;11.17;7.50;;;33.40;50.90;;;;;;5008782;28;21018;-50
2023/08/17 09:55:23;;;;;;;8.93;8.10;;;33.70;49.80;;;;;;5005473;28;20436;-46
2023/08/17 09:57:50;;;;;;;7.57;6.87;;;33.80;49.10;;;;;;5005189;28;20467;-48
2023/08/17 10:00:16;;;;;;;8.23;7.50;;;33.90;49.30;;;;;;5005410;28;20206;-47
2023/08/17 10:02:44;;;;;;;8.37;7.53;;;34.10;49.70;;;;;;5003623;28;20481;-47
2023/08/17 10:05:12;;;;;;;9.03;8.33;;;34.20;47.00;;;;;;5000869;28;20460;-47
2023/08/17 10:07:44;;;;;;;8.97;8.27;;;34.30;47.20;;;;;;5007289;28;20895;-46
2023/08/17 10:10:12;;;;;;;11.80;8.37;;;34.40;46.80;;;;;;5013136;28;20487;-50
2023/08/17 10:12:45;;;;;;;8.77;7.97;;;34.50;46.60;;;;;;5015119;28;20491;-48
2023/08/17 10:15:14;;;;;;;10.13;9.07;;;34.60;47.10;;;;;;5017716;28;20497;-48
2023/08/17 10:17:50;;;;;;;8.97;8.27;;;34.50;46.00;;;;;;5012584;28;20467;-52
2023/08/17 10:20:17;;;;;;;8.60;7.77;;;34.30;46.80;;;;;;5013551;28;20452;-48
2023/08/17 10:22:52;;;;;;;8.50;7.80;;;34.40;47.20;;;;;;5008812;28;20452;-47
2023/08/17 10:25:18;;;;;;;8.07;7.47;;;34.50;46.80;;;;;;5012996;28;20918;-46
2023/08/17 10:27:45;;;;;;;8.50;7.90;;;34.60;47.20;;;;;;5010504;28;20791;-45
2023/08/17 10:30:11;;;;;;;9.60;8.70;;;34.80;46.70;;;;;;5014557;28;20448;-47
2023/08/17 10:32:38;;;;;;;8.90;8.10;;;34.80;45.70;;;;;;5005842;28;20499;-49
2023/08/17 10:35:05;;;;;;;8.37;7.53;;;35.10;45.70;;;;;;5007890;28;20441;-47
2023/08/17 10:37:31;;;;;;;10.00;9.20;;;35.20;46.10;;;;;;5010792;28;20449;-51
2023/08/17 10:39:57;;;;;;;9.27;8.57;;;35.40;45.00;;;;;;5011060;28;20444;-49
2023/08/17 10:42:36;;;;;;;8.70;8.00;;;35.40;45.00;;;;;;5010978;28;20480;-46
2023/08/17 10:45:20;;;;;;;9.20;8.30;;;35.50;44.60;;;;;;5014905;28;20868;-48
2023/08/17 10:47:46;;;;;;;9.67;7.73;;;35.40;44.90;;;;;;5011810;28;20504;-46
2023/08/17 10:50:22;;;;;;;7.50;6.80;;;35.30;45.30;;;;;;5014076;28;20476;-48
2023/08/17 10:52:50;;;;;;;8.30;7.70;;;35.70;45.30;;;;;;5006367;28;20232;-49
2023/08/17 10:55:16;;;;;;;7.60;6.90;;;35.90;45.50;;;;;;5014423;28;20428;-46
2023/08/17 10:57:43;;;;;;;7.93;7.23;;;36.10;45.60;;;;;;5013752;28;20435;-49
2023/08/17 11:00:26;;;;;;;9.23;8.53;;;36.50;45.40;;;;;;5013259;28;20514;-49
2023/08/17 11:02:58;;;;;;;8.33;7.60;;;36.70;43.80;;;;;;5011844;28;20458;-46
2023/08/17 11:05:43;;;;;;;7.20;6.70;;;36.80;42.70;;;;;;5011143;28;20489;-50
2023/08/17 11:08:20;;;;;;;8.70;7.93;;;36.80;44.20;;;;;;5010110;28;20598;-49
2023/08/17 11:11:05;;;;;;;7.73;7.07;;;36.90;43.20;;;;;;5012049;28;20428;-49
2023/08/17 11:13:36;;;;;;;7.73;7.23;;;37.00;42.70;;;;;;5008124;28;20484;-49
2023/08/17 11:16:02;;;;;;;8.20;7.50;;;37.10;42.80;;;;;;5017423;28;20959;-48
2023/08/17 11:18:28;;;;;;;7.33;6.83;;;37.20;42.50;;;;;;5012165;28;20451;-51
2023/08/17 11:20:55;;;;;;;7.90;7.10;;;37.40;42.30;;;;;;5011261;28;20443;-47
2023/08/17 11:23:22;;;;;;;7.87;7.27;;;37.50;41.00;;;;;;5009755;28;20210;-49
2023/08/17 11:25:48;;;;;;;8.37;7.67;;;37.70;41.30;;;;;;5008181;28;20440;-50
2023/08/17 11:28:14;;;;;;;7.63;7.10;;;37.70;41.00;;;;;;5011100;28;20519;-50
2023/08/17 11:30:40;;;;;;;7.77;7.27;;;37.80;41.60;;;;;;5009742;28;20333;-49
2023/08/17 11:33:07;;;;;;;8.50;7.90;;;37.80;40.10;;;;;;5011758;28;20997;-48
2023/08/17 11:35:33;;;;;;;8.43;7.83;;;37.90;39.50;;;;;;5005306;28;20283;-52
2023/08/17 11:37:58;;;;;;;8.07;7.47;;;37.90;40.30;;;;;;5012535;28;20483;-51
2023/08/17 11:40:26;;;;;;;7.97;7.20;;;38.10;40.60;;;;;;5010348;28;20234;-51
2023/08/17 11:42:52;;;;;;;6.80;6.30;;;38.20;39.50;;;;;;5010569;28;20212;-50
2023/08/17 11:45:18;;;;;;;7.67;7.10;;;38.30;39.50;;;;;;5011451;28;20444;-51
2023/08/17 11:47:44;;;;;;;7.57;6.97;;;38.00;39.00;;;;;;5009393;28;20260;-51
2023/08/17 11:50:11;;;;;;;7.67;6.70;;;38.10;39.20;;;;;;5013439;28;20500;-51
2023/08/17 11:52:37;;;;;;;7.87;7.27;;;38.00;40.10;;;;;;5011798;28;20221;-49
2023/08/17 11:55:05;;;;;;;8.30;7.70;;;38.00;40.40;;;;;;5011262;28;21096;-50
2023/08/17 11:57:31;;;;;;;8.00;7.30;;;38.00;39.70;;;;;;5006646;28;20245;-47
2023/08/17 11:59:58;;;;;;;7.77;7.17;;;38.10;40.00;;;;;;5005519;28;20895;-52
2023/08/17 12:02:24;;;;;;;8.33;7.73;;;38.30;39.50;;;;;;5004306;28;20447;-49
2023/08/17 12:04:51;;;;;;;8.33;7.60;;;38.30;40.40;;;;;;5010876;28;20444;-47
2023/08/17 12:07:18;;;;;;;8.70;7.90;;;38.10;40.60;;;;;;5007608;28;20806;-50
2023/08/17 12:09:45;;;;;;;7.20;6.60;;;38.10;40.80;;;;;;5008598;28;21480;-48
2023/08/17 12:12:10;;;;;;;9.00;8.27;;;38.00;40.70;;;;;;5008748;28;20232;-52
2023/08/17 12:14:37;;;;;;;8.60;7.90;;;38.00;40.90;;;;;;5010023;28;20805;-50
2023/08/17 12:17:03;;;;;;;9.77;8.87;;;37.90;41.00;;;;;;5011901;28;20583;-50
2023/08/17 12:19:29;;;;;;;9.20;8.30;;;37.70;40.80;;;;;;5008989;28;20470;-53
2023/08/17 12:21:57;;;;;;;9.60;8.80;;;37.60;40.80;;;;;;5009815;28;20460;-52
2023/08/17 12:24:26;;;;;;;9.13;8.50;;;37.40;41.20;;;;;;5007921;28;20436;-51
2023/08/17 12:26:52;;;;;;;8.60;7.80;;;37.30;41.80;;;;;;5006910;28;20531;-51
2023/08/17 12:29:17;;;;;;;9.77;8.67;;;37.20;41.60;;;;;;5005945;28;20876;-50
2023/08/17 12:31:44;;;;;;;9.23;8.50;;;37.10;42.10;;;;;;5009024;28;20892;-48
2023/08/17 12:34:10;;;;;;;8.90;8.20;;;36.80;41.90;;;;;;5015214;28;20198;-49
2023/08/17 12:36:37;;;;;;;9.93;9.03;;;36.70;42.30;;;;;;5012629;28;20520;-49
2023/08/17 12:39:03;;;;;;;9.30;8.60;;;36.60;42.50;;;;;;5010506;28;20204;-49
2023/08/17 12:41:29;;;;;;;8.70;8.00;;;36.50;42.60;;;;;;5010405;28;20539;-49